Time;durP1;ratioP1;P1;durP2;ratioP2;P2;SDS_P1;SDS_P2;PMS_P1;PMS_P2;Temp;Humidity;BMP_temperature;BMP_pressure;BME280_temperature;BME280_humidity;BME280_pressure;Samples;Min_cycle;Max_cycle;Signal;HPM_P1;HPM_P2
2022/12/03 00:02:15;;;;;;;1.17;1.17;;;;;;;4.71;63.24;102554.78;5077506;28;20021;-81
2022/12/03 00:04:41;;;;;;;0.20;0.20;;;;;;;4.66;63.62;102549.38;5074264;28;20032;-80
2022/12/03 00:07:08;;;;;;;0.57;0.32;;;;;;;4.71;63.58;102552.16;5073657;28;20024;-81
2022/12/03 00:09:34;;;;;;;0.45;0.45;;;;;;;4.74;63.46;102548.72;5072887;28;20025;-80
2022/12/03 00:12:00;;;;;;;0.35;0.35;;;;;;;4.70;63.88;102545.09;5072910;28;20028;-80
2022/12/03 00:14:26;;;;;;;0.17;0.17;;;;;;;4.71;63.77;102541.66;5077590;28;20467;-80
2022/12/03 00:16:52;;;;;;;0.20;0.20;;;;;;;4.73;63.76;102546.94;5088816;28;20032;-81
2022/12/03 00:19:18;;;;;;;0.10;0.10;;;;;;;4.72;63.57;102547.78;5089534;28;20077;-81
2022/12/03 00:21:44;;;;;;;0.20;0.20;;;;;;;4.71;63.87;102549.53;5093532;28;20024;-81
2022/12/03 00:24:10;;;;;;;0.40;0.40;;;;;;;4.72;63.82;102553.91;5085765;28;20423;-81
2022/12/03 00:26:36;;;;;;;0.10;0.10;;;;;;;4.70;63.77;102538.09;5092080;28;20053;-81
2022/12/03 00:29:02;;;;;;;0.38;0.38;;;;;;;4.70;63.78;102545.97;5085401;28;20498;-82
2022/12/03 00:31:28;;;;;;;0.73;0.73;;;;;;;4.69;64.02;102538.94;5092510;28;20564;-81
2022/12/03 00:33:55;;;;;;;0.15;0.15;;;;;;;4.71;63.97;102541.66;5092320;28;20119;-81
2022/12/03 00:36:21;;;;;;;0.40;0.40;;;;;;;4.69;63.93;102538.94;5087953;28;20078;-81
2022/12/03 00:38:47;;;;;;;0.20;0.20;;;;;;;4.71;64.36;102539.03;5092480;28;20038;-81
2022/12/03 00:41:13;;;;;;;0.20;0.20;;;;;;;4.67;64.23;102540.66;5087170;28;20088;-80
2022/12/03 00:43:39;;;;;;;0.10;0.10;;;;;;;4.69;64.17;102536.31;5086551;28;20032;-80
2022/12/03 00:46:05;;;;;;;0.30;0.30;;;;;;;4.70;63.81;102535.47;5093548;28;20403;-81
2022/12/03 00:48:31;;;;;;;0.13;0.13;;;;;;;4.69;64.45;102538.94;5086030;28;20235;-82
2022/12/03 00:50:57;;;;;;;0.10;0.10;;;;;;;4.73;64.41;102532.06;5091736;28;20622;-81
2022/12/03 00:53:23;;;;;;;0.10;0.10;;;;;;;4.72;64.26;102532.03;5093484;28;20024;-81
2022/12/03 00:55:50;;;;;;;1.38;1.30;;;;;;;4.72;64.36;102526.78;5092878;28;20020;-81
2022/12/03 00:58:17;;;;;;;0.20;0.20;;;;;;;4.72;64.21;102522.41;5083856;28;20035;-81
2022/12/03 01:00:43;;;;;;;0.35;0.35;;;;;;;4.71;64.11;102520.63;5090979;28;20029;-80
2022/12/03 01:03:09;;;;;;;0.10;0.10;;;;;;;4.75;64.14;102529.47;5092400;28;20078;-81
2022/12/03 01:05:35;;;;;;;0.82;0.82;;;;;;;4.75;64.45;102522.50;5095272;28;20516;-80
2022/12/03 01:08:01;;;;;;;0.10;0.10;;;;;;;4.73;64.25;102521.56;5101852;28;20024;-80
2022/12/03 01:10:27;;;;;;;0.10;0.10;;;;;;;4.75;64.55;102522.50;5092079;28;20579;-80
2022/12/03 01:12:54;;;;;;;0.20;0.20;;;;;;;4.75;64.34;102521.59;5089310;28;20027;-81
2022/12/03 01:15:20;;;;;;;0.60;0.60;;;;;;;4.73;64.57;102516.31;5084885;28;20025;-82
2022/12/03 01:17:46;;;;;;;0.30;0.30;;;;;;;4.72;64.50;102506.63;5085296;28;20024;-82
2022/12/03 01:20:12;;;;;;;0.85;0.85;;;;;;;4.70;64.41;102513.59;5089078;28;20510;-79
2022/12/03 01:22:38;;;;;;;0.40;0.40;;;;;;;4.74;64.32;102507.59;5084430;28;20032;-82
2022/12/03 01:25:05;;;;;;;1.40;1.40;;;;;;;4.73;64.46;102508.44;5088809;28;20036;-80
2022/12/03 01:27:31;;;;;;;2.53;1.27;;;;;;;4.75;64.71;102501.50;5087029;28;20024;-79
2022/12/03 01:29:57;;;;;;;1.05;1.05;;;;;;;4.74;64.61;102506.72;5086568;28;20035;-79
2022/12/03 01:32:23;;;;;;;0.20;0.20;;;;;;;4.77;64.55;102507.69;5090493;28;20030;-80
2022/12/03 01:34:52;;;;;;;0.10;0.10;;;;;;;4.80;64.64;102513.03;5086202;28;20103;-79
2022/12/03 01:37:20;;;;;;;0.47;0.47;;;;;;;4.82;64.58;102508.72;5095722;28;20016;-80
2022/12/03 01:39:47;;;;;;;0.20;0.20;;;;;;;4.83;64.50;102499.97;5087181;28;20097;-80
2022/12/03 01:42:17;;;;;;;0.10;0.10;;;;;;;4.88;64.66;102505.38;5091536;28;20035;-80
2022/12/03 01:44:44;;;;;;;2.33;2.13;;;;;;;4.83;64.42;102507.84;5094106;28;20477;-80
2022/12/03 01:47:15;;;;;;;0.20;0.20;;;;;;;4.81;64.25;102501.69;5090771;28;20030;-80
2022/12/03 01:49:47;;;;;;;0.80;0.80;;;;;;;4.82;64.43;102502.56;5094513;28;20016;-80
2022/12/03 01:52:16;;;;;;;0.37;0.37;;;;;;;4.81;64.22;102500.78;5088559;28;20450;-80
2022/12/03 01:54:48;;;;;;;0.75;0.75;;;;;;;4.80;64.59;102507.78;5090621;28;20028;-80
2022/12/03 01:57:22;;;;;;;0.50;0.50;;;;;;;4.82;64.60;102505.19;5095805;28;20024;-80
2022/12/03 01:59:49;;;;;;;0.10;0.10;;;;;;;4.79;64.38;102505.13;5089660;28;20099;-81
2022/12/03 02:02:23;;;;;;;0.20;0.20;;;;;;;4.82;64.25;102503.47;5089502;28;20548;-82
2022/12/03 02:04:51;;;;;;;0.20;0.20;;;;;;;4.77;64.62;102507.69;5095407;28;20221;-82
2022/12/03 02:07:21;;;;;;;0.85;0.85;;;;;;;4.77;64.23;102507.69;5090860;28;20035;-81
2022/12/03 02:09:47;;;;;;;0.20;0.20;;;;;;;4.74;64.38;102504.97;5092930;28;20028;-81
2022/12/03 02:12:18;;;;;;;0.20;0.20;;;;;;;4.77;64.36;102510.31;5091287;28;20093;-82
2022/12/03 02:14:44;;;;;;;2.70;2.08;;;;;;;4.79;64.79;102508.63;5087370;28;20028;-82
2022/12/03 02:17:11;;;;;;;0.20;0.20;;;;;;;4.79;64.29;102507.75;5093701;28;20056;-82
2022/12/03 02:19:38;;;;;;;0.10;0.10;;;;;;;4.80;64.76;102502.53;5087163;28;20028;-81
2022/12/03 02:22:22;;;;;;;0.20;0.20;;;;;;;4.83;64.80;102505.22;5089482;28;20063;-82
2022/12/03 02:24:57;;;;;;;1.55;1.45;;;;;;;4.80;64.98;102499.91;5090996;28;20028;-82
2022/12/03 02:27:23;;;;;;;0.38;0.38;;;;;;;4.77;64.85;102497.19;5084882;28;20150;-81
2022/12/03 02:29:50;;;;;;;0.13;0.13;;;;;;;4.79;64.86;102499.84;5072548;28;20100;-81
2022/12/03 02:32:17;;;;;;;0.17;0.17;;;;;;;4.80;64.79;102502.53;5080390;28;20082;-81
2022/12/03 02:34:44;;;;;;;0.20;0.20;;;;;;;4.80;65.15;102497.28;5081353;28;20024;-81
2022/12/03 02:37:16;;;;;;;1.27;1.17;;;;;;;4.81;64.97;102491.19;5089521;28;20053;-81
2022/12/03 02:39:49;;;;;;;2.67;2.47;;;;;;;4.79;64.85;102495.47;5089950;28;20395;-81
2022/12/03 02:42:46;;;;;;;0.20;0.20;;;;;;;4.81;64.55;102495.53;5093451;28;20487;-82
2022/12/03 02:45:21;;;;;;;0.20;0.20;;;;;;;4.87;64.66;102490.47;5081435;28;20047;-81
2022/12/03 02:47:53;;;;;;;0.10;0.10;;;;;;;4.80;64.95;102484.16;5085021;28;20052;-82
2022/12/03 02:50:25;;;;;;;0.57;0.57;;;;;;;4.82;64.92;102485.09;5088447;28;20041;-79
2022/12/03 02:52:54;;;;;;;3.40;1.67;;;;;;;4.78;65.07;102483.19;5094282;28;20460;-80
2022/12/03 02:55:21;;;;;;;0.20;0.20;;;;;;;4.83;65.03;102489.47;5090293;28;20032;-81
2022/12/03 02:57:49;;;;;;;1.63;0.68;;;;;;;4.79;64.83;102481.47;5088608;28;20123;-80
2022/12/03 03:00:17;;;;;;;0.10;0.10;;;;;;;4.75;64.89;102482.22;5088897;28;20051;-81
2022/12/03 03:02:45;;;;;;;0.20;0.20;;;;;;;4.78;65.30;102479.69;5094465;28;20035;-80
2022/12/03 03:05:13;;;;;;;0.85;0.85;;;;;;;4.84;65.08;102483.38;5093960;28;20028;-81
2022/12/03 03:07:40;;;;;;;0.45;0.45;;;;;;;4.81;65.10;102479.75;5094747;28;20059;-80
2022/12/03 03:10:10;;;;;;;0.30;0.30;;;;;;;4.82;64.94;102469.34;5091999;28;20017;-81
2022/12/03 03:12:36;;;;;;;0.10;0.10;;;;;;;4.80;64.99;102478.88;5086444;28;20088;-80
2022/12/03 03:15:03;;;;;;;0.20;0.20;;;;;;;4.83;65.33;102471.09;5093782;28;20036;-81
2022/12/03 03:17:30;;;;;;;0.20;0.20;;;;;;;4.85;65.13;102472.03;5091048;28;20028;-82
2022/12/03 03:19:56;;;;;;;0.20;0.20;;;;;;;4.86;65.33;102479.06;5093932;28;20032;-81
2022/12/03 03:22:31;;;;;;;0.10;0.10;;;;;;;4.91;65.51;102476.59;5092349;28;20028;-80
2022/12/03 03:24:57;;;;;;;0.65;0.65;;;;;;;4.92;65.26;102477.47;5090400;28;20024;-81
2022/12/03 03:27:23;;;;;;;0.10;0.10;;;;;;;4.92;65.11;102472.22;5088226;28;20060;-82
2022/12/03 03:29:49;;;;;;;0.85;0.85;;;;;;;4.93;65.24;102474.00;5092743;28;20031;-82
2022/12/03 03:32:15;;;;;;;0.38;0.38;;;;;;;4.92;65.54;102467.88;5092289;28;20032;-81
2022/12/03 03:34:41;;;;;;;1.33;1.25;;;;;;;4.94;65.14;102460.03;5094347;28;20035;-82
2022/12/03 03:37:07;;;;;;;0.10;0.10;;;;;;;4.94;65.50;102465.28;5094588;28;20077;-81
2022/12/03 03:39:34;;;;;;;1.88;1.77;;;;;;;4.96;65.32;102461.84;5090247;28;20056;-82
2022/12/03 03:42:00;;;;;;;0.30;0.30;;;;;;;4.98;65.44;102461.91;5083933;28;20039;-82
2022/12/03 03:44:27;;;;;;;0.25;0.25;;;;;;;4.99;65.13;102455.81;5091009;28;20465;-82
2022/12/03 03:46:54;;;;;;;0.95;0.95;;;;;;;5.01;65.31;102456.75;5093839;28;20036;-79
2022/12/03 03:49:21;;;;;;;2.00;0.98;;;;;;;5.01;65.64;102454.13;5090947;28;20469;-81
2022/12/03 03:51:47;;;;;;;0.95;0.95;;;;;;;5.04;65.45;102456.81;5093996;28;20115;-81
2022/12/03 03:54:13;;;;;;;0.50;0.50;;;;;;;5.00;65.25;102460.22;5087915;28;20062;-82
2022/12/03 03:56:40;;;;;;;0.20;0.20;;;;;;;5.00;64.99;102454.97;5094973;28;20098;-81
2022/12/03 03:59:06;;;;;;;0.20;0.20;;;;;;;5.05;65.11;102458.59;5090817;28;20027;-81
2022/12/03 04:01:32;;;;;;;0.20;0.20;;;;;;;5.03;64.99;102455.03;5095039;28;20111;-82
2022/12/03 04:03:59;;;;;;;0.38;0.38;;;;;;;5.07;65.20;102451.66;5091379;28;20515;-80
2022/12/03 04:06:26;;;;;;;1.48;1.38;;;;;;;5.09;65.29;102449.06;5090200;28;20415;-81
2022/12/03 04:08:53;;;;;;;0.95;0.95;;;;;;;5.08;65.22;102450.78;5095181;28;20042;-81
2022/12/03 04:14:05;;;;;;;0.82;0.82;;;;;;;5.10;65.24;102437.72;5088641;28;20571;-80
2022/12/03 04:16:31;;;;;;;0.88;0.88;;;;;;;5.11;65.31;102440.38;5089560;28;20037;-80
2022/12/03 04:18:57;;;;;;;0.30;0.30;;;;;;;5.10;65.15;102441.22;5091360;28;20462;-80
2022/12/03 04:24:11;;;;;;;0.15;0.15;;;;;;;5.12;65.30;102431.66;5087887;28;20032;-80
2022/12/03 04:29:23;;;;;;;0.20;0.20;;;;;;;5.06;65.26;102423.63;5069706;28;20040;-80
2022/12/03 04:37:21;;;;;;;0.20;0.20;;;;;;;5.00;64.86;102415.56;5074196;28;20035;-80
2022/12/03 04:39:48;;;;;;;0.15;0.15;;;;;;;4.99;65.15;102414.66;5073467;28;20016;-80
2022/12/03 04:42:14;;;;;;;0.15;0.15;;;;;;;4.98;64.89;102412.84;5073690;28;20021;-80
2022/12/03 04:44:40;;;;;;;0.10;0.10;;;;;;;5.02;65.16;102413.84;5071306;28;20056;-81
2022/12/03 04:47:10;;;;;;;0.32;0.32;;;;;;;5.05;65.34;102421.81;5074122;28;20027;-80
2022/12/03 04:49:39;;;;;;;1.60;1.40;;;;;;;5.05;65.24;102416.56;5077237;28;20030;-81
2022/12/03 04:52:06;;;;;;;0.25;0.25;;;;;;;5.08;65.07;102408.75;5082510;28;20056;-81
2022/12/03 04:54:33;;;;;;;0.30;0.30;;;;;;;5.09;65.24;102417.56;5074572;28;20078;-80
2022/12/03 04:56:59;;;;;;;0.35;0.35;;;;;;;5.09;65.28;102413.19;5072500;28;20051;-81
2022/12/03 04:59:25;;;;;;;0.20;0.20;;;;;;;5.10;65.31;102414.97;5074121;28;20020;-81
2022/12/03 05:01:51;;;;;;;0.17;0.17;;;;;;;5.13;65.00;102414.16;5073975;28;20085;-81
2022/12/03 05:04:17;;;;;;;0.20;0.20;;;;;;;5.13;65.19;102414.16;5074089;28;20025;-81
2022/12/03 05:06:43;;;;;;;0.68;0.68;;;;;;;5.13;64.79;102409.78;5075260;28;20037;-81
2022/12/03 05:09:10;;;;;;;0.10;0.10;;;;;;;5.13;65.37;102412.41;5081166;28;20399;-80
2022/12/03 05:11:36;;;;;;;0.30;0.30;;;;;;;5.12;64.94;102418.53;5082767;28;20053;-81
2022/12/03 05:14:02;;;;;;;0.50;0.50;;;;;;;5.15;65.11;102412.47;5078816;28;20029;-81
2022/12/03 05:16:29;;;;;;;0.85;0.85;;;;;;;5.16;65.19;102404.63;5077494;28;20112;-81
2022/12/03 05:18:55;;;;;;;0.20;0.20;;;;;;;5.15;65.43;102402.84;5077412;28;20016;-81
2022/12/03 05:21:21;;;;;;;0.77;0.77;;;;;;;5.15;65.22;102402.84;5077930;28;20024;-81
2022/12/03 05:23:47;;;;;;;0.73;0.73;;;;;;;5.14;65.13;102401.03;5077552;28;20092;-81
2022/12/03 05:26:14;;;;;;;0.73;0.73;;;;;;;5.13;64.88;102396.63;5076966;28;20040;-81
2022/12/03 05:28:40;;;;;;;1.48;1.42;;;;;;;5.15;64.78;102402.84;5095789;28;20372;-82
2022/12/03 05:31:06;;;;;;;1.02;1.02;;;;;;;5.14;65.02;102401.03;5063691;28;20372;-81
2022/12/03 05:33:32;;;;;;;0.20;0.20;;;;;;;5.19;65.22;102396.81;5077931;28;20068;-81
2022/12/03 05:35:58;;;;;;;0.43;0.43;;;;;;;5.23;65.40;102392.53;5092422;28;20025;-81
2022/12/03 05:38:24;;;;;;;3.00;1.05;;;;;;;5.27;65.26;102385.63;5085733;28;20024;-81
2022/12/03 05:40:51;;;;;;;0.10;0.10;;;;;;;5.30;65.25;102390.97;5087884;28;20436;-81
2022/12/03 05:43:17;;;;;;;0.43;0.43;;;;;;;5.31;65.27;102392.75;5086228;28;20029;-81
2022/12/03 05:45:43;;;;;;;0.20;0.20;;;;;;;5.28;65.13;102387.41;5077425;28;20495;-81
2022/12/03 05:48:12;;;;;;;0.88;0.85;;;;;;;5.30;65.17;102383.09;5086965;28;20126;-81
2022/12/03 05:50:40;;;;;;;0.20;0.20;;;;;;;5.28;65.21;102379.53;5078546;28;20440;-81
2022/12/03 05:53:06;;;;;;;0.15;0.15;;;;;;;5.24;65.06;102380.28;5078727;28;20514;-81
2022/12/03 05:55:32;;;;;;;1.73;0.85;;;;;;;5.22;65.07;102375.00;5096374;28;20567;-81
2022/12/03 05:57:59;;;;;;;0.22;0.22;;;;;;;5.23;64.97;102371.50;5079673;28;20564;-81
2022/12/03 06:00:28;;;;;;;0.20;0.20;;;;;;;5.24;64.83;102372.41;5078032;28;20024;-82
2022/12/03 06:02:54;;;;;;;0.10;0.10;;;;;;;5.23;64.61;102365.38;5091087;28;20042;-81
2022/12/03 06:05:21;;;;;;;0.10;0.10;;;;;;;5.26;64.97;102370.69;5097832;28;20084;-80
2022/12/03 06:07:49;;;;;;;0.10;0.10;;;;;;;5.28;64.96;102374.25;5097749;28;20109;-82
2022/12/03 06:10:19;;;;;;;0.10;0.10;;;;;;;5.30;64.89;102376.09;5085088;28;20029;-81
2022/12/03 06:12:45;;;;;;;0.40;0.40;;;;;;;5.30;64.99;102367.31;5086985;28;20036;-81
2022/12/03 06:15:13;;;;;;;0.20;0.20;;;;;;;5.28;65.21;102371.63;5097622;28;20047;-82
2022/12/03 06:17:39;;;;;;;0.20;0.20;;;;;;;5.31;65.17;102366.47;5088766;28;20035;-81
2022/12/03 06:20:06;;;;;;;0.52;0.52;;;;;;;5.29;65.05;102357.66;5093917;28;20028;-81
2022/12/03 06:22:32;;;;;;;0.20;0.20;;;;;;;5.33;65.15;102362.13;5096577;28;20039;-81
2022/12/03 06:24:58;;;;;;;0.63;0.63;;;;;;;5.35;65.37;102363.06;5085877;28;20111;-81
2022/12/03 06:27:24;;;;;;;1.40;1.40;;;;;;;5.35;65.24;102355.19;5094783;28;20112;-81
2022/12/03 06:29:50;;;;;;;0.60;0.60;;;;;;;5.36;65.20;102362.22;5096989;28;20487;-81
2022/12/03 06:32:16;;;;;;;0.50;0.50;;;;;;;5.37;65.02;102365.72;5088020;28;20040;-80
2022/12/03 06:34:42;;;;;;;0.10;0.10;;;;;;;5.36;65.21;102364.84;5091876;28;20128;-80
2022/12/03 06:37:08;;;;;;;0.20;0.20;;;;;;;5.33;65.21;102362.13;5096980;28;20067;-80
2022/12/03 06:39:34;;;;;;;0.20;0.20;;;;;;;5.35;65.20;102357.81;5095840;28;20028;-80
2022/12/03 06:42:00;;;;;;;0.20;0.20;;;;;;;5.35;65.32;102355.19;5096287;28;20032;-81
2022/12/03 06:44:26;;;;;;;0.73;0.63;;;;;;;5.36;65.31;102351.72;5097312;28;20514;-80
2022/12/03 06:46:55;;;;;;;0.15;0.15;;;;;;;5.32;65.03;102350.75;5093495;28;20024;-80
2022/12/03 06:49:21;;;;;;;0.10;0.10;;;;;;;5.30;64.97;102351.56;5092105;28;20016;-80
2022/12/03 06:51:47;;;;;;;0.20;0.20;;;;;;;5.29;65.27;102355.91;5096671;28;20028;-80
2022/12/03 06:54:13;;;;;;;0.88;0.88;;;;;;;5.29;65.16;102358.53;5079172;28;20052;-81
2022/12/03 06:56:39;;;;;;;2.13;1.30;;;;;;;5.26;64.85;102354.94;5089325;28;20036;-80
2022/12/03 06:59:05;;;;;;;0.82;0.77;;;;;;;5.26;65.09;102354.94;5074474;28;20025;-81
2022/12/03 07:01:31;;;;;;;0.35;0.35;;;;;;;5.26;64.87;102362.81;5073797;28;20488;-80
2022/12/03 07:03:57;;;;;;;0.65;0.65;;;;;;;5.27;64.93;102356.72;5075257;28;20032;-80
2022/12/03 07:06:23;;;;;;;0.50;0.28;;;;;;;5.28;65.23;102362.03;5074202;28;20044;-80
2022/12/03 07:08:49;;;;;;;0.43;0.43;;;;;;;5.31;65.62;102355.97;5078209;28;20027;-80
2022/12/03 07:11:30;;;;;;;0.63;0.63;;;;;;;5.31;65.46;102363.84;5084719;28;20031;-81
2022/12/03 07:13:58;;;;;;;0.40;0.40;;;;;;;5.27;65.06;102369.84;5084340;28;20042;-80
2022/12/03 07:16:24;;;;;;;0.10;0.10;;;;;;;5.27;64.85;102364.59;5075214;28;20020;-81
2022/12/03 07:18:50;;;;;;;22.65;1.95;;;;;;;5.27;65.48;102369.84;5073813;28;20038;-81
2022/12/03 07:21:16;;;;;;;0.50;0.45;;;;;;;5.25;65.32;102364.56;5074066;28;20032;-81
2022/12/03 07:23:42;;;;;;;0.25;0.25;;;;;;;5.26;65.26;102368.06;5074372;28;20025;-80
2022/12/03 07:26:08;;;;;;;0.65;0.38;;;;;;;5.26;65.26;102370.69;5080365;28;20124;-80
2022/12/03 07:28:35;;;;;;;0.52;0.52;;;;;;;5.27;65.18;102367.22;5084441;28;20092;-81
2022/12/03 07:31:01;;;;;;;3.10;1.20;;;;;;;5.26;65.34;102374.22;5073866;28;20438;-80
2022/12/03 07:33:27;;;;;;;1.42;1.33;;;;;;;5.24;65.12;102372.41;5073526;28;20036;-80
2022/12/03 07:35:53;;;;;;;0.65;0.65;;;;;;;5.24;65.02;102380.28;5073167;28;20400;-81
2022/12/03 07:38:19;;;;;;;1.20;1.17;;;;;;;5.23;65.37;102375.88;5073294;28;20503;-81
2022/12/03 07:40:45;;;;;;;0.10;0.10;;;;;;;5.25;65.30;102377.69;5082008;28;20503;-79
2022/12/03 07:43:11;;;;;;;0.32;0.32;;;;;;;5.23;65.16;102373.25;5070859;28;20078;-81
2022/12/03 07:45:37;;;;;;;0.20;0.20;;;;;;;5.24;65.37;102369.78;5072616;28;20028;-81
2022/12/03 07:48:03;;;;;;;0.30;0.30;;;;;;;5.25;65.21;102371.56;5072831;28;20028;-81
2022/12/03 07:50:29;;;;;;;0.20;0.20;;;;;;;5.25;65.36;102363.69;5071402;28;20079;-81
2022/12/03 07:52:56;;;;;;;0.20;0.20;;;;;;;5.24;65.29;102365.41;5071878;28;20037;-80
2022/12/03 07:55:23;;;;;;;0.20;0.20;;;;;;;5.23;65.30;102365.38;5082665;28;20135;-80
2022/12/03 07:57:50;;;;;;;0.20;0.20;;;;;;;5.19;65.38;102362.66;5071880;28;20491;-80
2022/12/03 08:00:16;;;;;;;0.10;0.10;;;;;;;5.21;65.30;102369.69;5072708;28;20037;-80
2022/12/03 08:02:42;;;;;;;2.00;1.70;;;;;;;5.19;65.18;102367.91;5073613;28;20072;-81
2022/12/03 08:05:08;;;;;;;0.40;0.40;;;;;;;5.18;64.90;102365.25;5074662;28;20495;-80
2022/12/03 08:07:34;;;;;;;0.82;0.82;;;;;;;5.19;65.11;102367.91;5077256;28;20110;-80
2022/12/03 08:10:01;;;;;;;0.75;0.75;;;;;;;5.22;65.38;102363.59;5082886;28;20028;-78
2022/12/03 08:12:38;;;;;;;0.20;0.20;;;;;;;5.27;65.68;102364.59;5072720;28;20036;-79
2022/12/03 08:15:23;;;;;;;0.30;0.30;;;;;;;5.34;65.61;102361.28;5071265;28;20131;-78
2022/12/03 08:17:59;;;;;;;0.32;0.32;;;;;;;5.34;65.48;102361.28;5072240;28;20028;-79
2022/12/03 08:20:28;;;;;;;1.88;0.95;;;;;;;5.24;64.86;102359.28;5077354;28;20056;-78
2022/12/03 08:22:56;;;;;;;0.20;0.20;;;;;;;5.25;64.81;102355.81;5075214;28;20046;-79
2022/12/03 08:25:26;;;;;;;2.38;1.80;;;;;;;5.27;64.90;102354.09;5084217;28;20503;-79
2022/12/03 08:27:59;;;;;;;0.20;0.20;;;;;;;5.29;65.05;102362.91;5079154;28;20373;-79
2022/12/03 08:30:25;;;;;;;0.30;0.30;;;;;;;5.26;64.71;102354.94;5078771;28;20048;-79
2022/12/03 08:32:52;;;;;;;3.83;2.53;;;;;;;5.26;64.75;102362.81;5075973;28;20488;-79
2022/12/03 08:35:25;;;;;;;0.32;0.32;;;;;;;5.30;64.76;102357.69;5089052;28;20027;-80
2022/12/03 08:38:00;;;;;;;1.80;1.70;;;;;;;5.32;64.72;102362.97;5074373;28;20032;-78
2022/12/03 08:40:35;;;;;;;0.20;0.20;;;;;;;5.31;64.71;102354.22;5059924;28;20025;-78
2022/12/03 08:43:06;;;;;;;0.35;0.35;;;;;;;5.31;64.89;102358.59;5062917;28;20059;-79
2022/12/03 08:53:58;;;;;;;1.05;1.02;;;;;;;5.26;64.75;102350.56;5122278;27;20198;-80
2022/12/03 08:56:27;;;;;;;0.47;0.47;;;;;;;5.22;64.58;102351.34;5091659;28;20036;-80
2022/12/03 09:01:44;;;;;;;0.30;0.30;;;;;;;5.25;64.52;102345.28;4611193;27;15082591;-80
2022/12/03 09:07:04;;;;;;;0.20;0.20;;;;;;;5.23;64.67;102341.72;5094775;27;20436;-79
2022/12/03 09:09:30;;;;;;;0.30;0.30;;;;;;;5.24;64.56;102339.13;5076000;28;20037;-80
2022/12/03 09:11:57;;;;;;;0.10;0.10;;;;;;;5.26;64.35;102341.78;5093276;28;20020;-80
2022/12/03 09:14:23;;;;;;;1.00;1.00;;;;;;;5.25;64.62;102335.66;5093028;28;20073;-82
2022/12/03 09:16:54;;;;;;;0.17;0.17;;;;;;;5.27;64.24;102335.69;5082091;28;20084;-81
2022/12/03 09:19:23;;;;;;;0.22;0.22;;;;;;;5.28;64.34;102334.84;5079288;28;20486;-79
2022/12/03 09:21:49;;;;;;;0.20;0.20;;;;;;;5.29;64.15;102337.50;5072146;28;20029;-80
2022/12/03 09:24:19;;;;;;;0.57;0.57;;;;;;;5.28;64.17;102340.09;5079743;28;20060;-82
2022/12/03 09:26:46;;;;;;;0.30;0.30;;;;;;;5.24;64.25;102335.63;5081670;28;20056;-80
2022/12/03 09:29:13;;;;;;;1.65;1.50;;;;;;;5.27;64.32;102330.44;5076933;28;20043;-79
2022/12/03 09:31:39;;;;;;;0.47;0.45;;;;;;;5.30;64.56;102338.41;5072702;28;20032;-81
2022/12/03 09:34:06;;;;;;;4.38;2.40;;;;;;;5.31;64.70;102340.19;5082286;28;20032;-82
2022/12/03 09:36:32;;;;;;;1.20;1.13;;;;;;;5.32;64.39;102341.94;5084797;28;20012;-81
2022/12/03 09:38:58;;;;;;;0.40;0.40;;;;;;;5.32;64.44;102344.56;5078468;28;20029;-81
2022/12/03 09:41:25;;;;;;;3.88;3.60;;;;;;;5.34;64.24;102345.50;5089376;28;20030;-81
2022/12/03 09:46:21;;;;;;;0.30;0.30;;;;;;;5.35;64.32;102339.41;5066913;28;20041;-79
2022/12/03 09:48:47;;;;;;;0.43;0.43;;;;;;;5.34;64.13;102340.25;5069616;28;20032;-79
2022/12/03 09:51:14;;;;;;;2.58;2.47;;;;;;;5.32;64.25;102334.97;5072815;28;20075;-79
2022/12/03 09:53:40;;;;;;;1.10;1.10;;;;;;;5.33;64.50;102338.47;5070655;28;20045;-80
2022/12/03 09:56:16;;;;;;;0.57;0.57;;;;;;;5.34;64.35;102340.25;5071950;28;20016;-80
2022/12/03 09:58:43;;;;;;;1.58;0.57;;;;;;;5.31;64.10;102334.94;5070462;28;20037;-80
2022/12/03 10:01:14;;;;;;;0.55;0.55;;;;;;;5.31;63.86;102342.81;5070616;28;20055;-79
2022/12/03 10:03:45;;;;;;;0.35;0.35;;;;;;;5.31;64.47;102340.19;5068047;28;20067;-80
2022/12/03 10:06:15;;;;;;;0.20;0.20;;;;;;;5.29;64.07;102342.75;5072411;28;20075;-79
2022/12/03 10:08:42;;;;;;;2.13;1.23;;;;;;;5.28;64.03;102346.25;5067932;28;20078;-80
2022/12/03 10:11:08;;;;;;;0.22;0.22;;;;;;;5.26;64.18;102341.78;5068906;28;20440;-79
2022/12/03 10:13:36;;;;;;;0.13;0.13;;;;;;;5.23;63.69;102344.34;5084324;28;20079;-82
2022/12/03 10:16:02;;;;;;;0.47;0.47;;;;;;;5.30;63.74;102338.41;5072866;28;20380;-79
2022/12/03 10:18:32;;;;;;;0.10;0.10;;;;;;;5.29;63.73;102336.63;5057442;28;20047;-78
2022/12/03 10:20:58;;;;;;;0.70;0.70;;;;;;;5.30;63.69;102339.28;5056549;28;20279;-78
2022/12/03 10:23:29;;;;;;;0.52;0.52;;;;;;;5.33;64.09;102333.22;5072330;28;20066;-78
2022/12/03 10:26:01;;;;;;;0.40;0.40;;;;;;;5.32;63.97;102332.34;5054784;28;20048;-80
2022/12/03 10:28:36;;;;;;;0.20;0.20;;;;;;;5.30;63.76;102328.78;5057734;28;20116;-79
2022/12/03 10:31:05;;;;;;;0.98;0.98;;;;;;;5.27;63.97;102333.97;5055365;28;20396;-81
2022/12/03 10:33:34;;;;;;;0.40;0.40;;;;;;;5.27;63.82;102325.16;5058308;28;20028;-80
2022/12/03 10:39:12;;;;;;;0.63;0.63;;;;;;;5.30;63.90;102314.75;5104812;27;20435;-80
2022/12/03 10:41:40;;;;;;;0.20;0.20;;;;;;;5.29;63.92;102311.22;5091720;28;20037;-79
2022/12/03 10:44:29;;;;;;;0.70;0.70;;;;;;;5.37;63.85;102311.44;5091669;28;20035;-79
2022/12/03 10:47:12;;;;;;;0.98;0.85;;;;;;;5.38;63.77;102302.69;5076944;28;20021;-80
2022/12/03 10:49:40;;;;;;;0.77;0.70;;;;;;;5.31;63.85;102300.78;5063454;28;20029;-80
2022/12/03 10:52:18;;;;;;;0.10;0.10;;;;;;;5.38;63.67;102299.16;5088907;28;20545;-80
2022/12/03 10:54:44;;;;;;;0.20;0.20;;;;;;;5.37;63.69;102302.66;5089653;28;20518;-80
2022/12/03 10:57:11;;;;;;;1.63;0.82;;;;;;;5.36;63.72;102299.16;5090093;28;20035;-80
2022/12/03 10:59:40;;;;;;;0.20;0.20;;;;;;;5.35;63.67;102294.72;5089834;28;20035;-80
2022/12/03 11:02:22;;;;;;;0.20;0.20;;;;;;;5.35;63.59;102289.47;5068674;28;20027;-81
2022/12/03 11:04:50;;;;;;;0.20;0.20;;;;;;;5.31;63.08;102280.63;5061839;28;20033;-80
2022/12/03 11:07:18;;;;;;;0.10;0.10;;;;;;;5.31;63.54;102280.63;5070245;28;20024;-81
2022/12/03 11:09:48;;;;;;;0.45;0.45;;;;;;;5.27;64.02;102285.75;5070254;28;20086;-80
2022/12/03 11:12:20;;;;;;;0.20;0.20;;;;;;;5.25;63.85;102282.22;5070244;28;20059;-81
2022/12/03 11:30:32;;;;;;;0.22;0.22;;;;;;;5.34;63.86;102270.16;5142612;27;20452;-81
2022/12/03 11:33:06;;;;;;;0.68;0.68;;;;;;;5.30;64.17;102264.81;5123948;28;20108;-81
2022/12/03 11:35:36;;;;;;;0.90;0.90;;;;;;;5.29;64.00;102257.78;5112208;28;20084;-81
2022/12/03 11:38:44;;;;;;;0.10;0.10;;;;;;;5.35;64.09;102253.56;5113688;28;20050;-81
2022/12/03 11:44:27;;;;;;;0.32;0.32;;;;;;;5.33;63.97;102252.66;5087320;27;20463;-80
2022/12/03 11:46:54;;;;;;;1.23;1.17;;;;;;;5.26;63.89;102248.09;5069489;28;20036;-80
2022/12/03 11:49:38;;;;;;;14.65;2.88;;;;;;;5.32;63.98;102242.97;5069311;28;20032;-79
2022/12/03 11:52:38;;;;;;;0.20;0.20;;;;;;;5.36;63.79;102236.06;5050550;28;20090;-80
2022/12/03 11:55:17;;;;;;;1.00;1.00;;;;;;;5.35;63.56;102231.66;5044221;28;20041;-81
2022/12/03 11:57:44;;;;;;;0.10;0.10;;;;;;;5.31;63.44;102241.19;5053264;28;20025;-80
2022/12/03 12:03:22;;;;;;;0.32;0.32;;;;;;;5.32;63.42;102240.34;5095714;27;20451;-80
2022/12/03 12:06:01;;;;;;;0.17;0.17;;;;;;;5.32;63.42;102232.47;5072074;28;20035;-80
2022/12/03 12:08:27;;;;;;;1.85;0.75;;;;;;;5.23;63.41;102236.59;5071408;28;20059;-80
2022/12/03 12:10:53;;;;;;;0.90;0.90;;;;;;;5.22;63.36;102235.72;5070929;28;20036;-80
2022/12/03 12:16:49;;;;;;;2.83;2.63;;;;;;;5.22;63.48;102232.19;5102727;27;20447;-79
2022/12/03 12:19:38;;;;;;;0.13;0.13;;;;;;;5.24;63.93;102228.75;5080957;28;20424;-80
2022/12/03 12:25:24;;;;;;;0.57;0.57;;;;;;;5.13;64.04;102214.47;5091257;27;20436;-79
2022/12/03 12:27:52;;;;;;;0.43;0.43;;;;;;;5.14;64.06;102211.88;5065231;28;20517;-80
2022/12/03 12:30:21;;;;;;;0.82;0.82;;;;;;;5.13;64.05;102207.47;5070556;28;20023;-80
2022/12/03 12:32:49;;;;;;;0.75;0.75;;;;;;;5.12;64.23;102202.19;5069600;28;20111;-77
2022/12/03 12:40:44;;;;;;;0.35;0.35;;;;;;;5.05;64.50;102209.03;4622242;27;15020992;-79
2022/12/03 12:45:46;;;;;;;2.57;2.37;;;;;;;5.02;64.39;102206.31;4586949;27;15709690;-79
2022/12/03 12:51:12;;;;;;;0.52;0.52;;;;;;;5.08;64.27;102203.84;5080559;27;20440;-79
2022/12/03 12:53:42;;;;;;;0.20;0.20;;;;;;;5.04;63.93;102209.88;5061600;28;20549;-79